createdAt,value
2022-11-21T00:00:29.036Z,93451.22
2022-11-21T00:02:59.946Z,93443.47
2022-11-21T00:05:26.403Z,93452.25
2022-11-21T00:07:52.813Z,93450.72
2022-11-21T00:10:19.259Z,93453.34
2022-11-21T00:12:45.651Z,93450.00
2022-11-21T00:15:12.204Z,93436.88
2022-11-21T00:17:38.632Z,93443.63
2022-11-21T00:20:05.545Z,93439.50
2022-11-21T00:22:32.150Z,93427.91
2022-11-21T00:24:59.131Z,93445.19
2022-11-21T00:27:25.538Z,93436.69
2022-11-21T00:29:51.970Z,93429.47
2022-11-21T00:32:18.345Z,93418.41
2022-11-21T00:34:44.721Z,93432.28
2022-11-21T00:37:11.167Z,93418.41
2022-11-21T00:39:37.541Z,93434.88
2022-11-21T00:42:04.131Z,93419.41
2022-11-21T00:44:30.634Z,93430.72
2022-11-21T00:46:57.250Z,93419.63
2022-11-21T00:49:23.716Z,93414.53
2022-11-21T00:51:50.112Z,93413.22
2022-11-21T00:54:16.498Z,93419.94
2022-11-21T00:56:42.965Z,93417.66
2022-11-21T00:59:09.555Z,93416.09
2022-11-21T01:01:35.958Z,93408.63
2022-11-21T01:04:02.406Z,93406.06
2022-11-21T01:06:28.821Z,93415.59
2022-11-21T01:08:55.233Z,93406.56
2022-11-21T01:11:21.908Z,93408.09
2022-11-21T01:13:49.332Z,93409.13
2022-11-21T01:16:19.014Z,93407.34
2022-11-21T01:18:46.112Z,93394.16
2022-11-21T01:21:19.099Z,93381.00
2022-11-21T01:23:45.845Z,93385.88
2022-11-21T01:26:15.611Z,93377.59
2022-11-21T01:28:42.279Z,93371.97
2022-11-21T01:31:18.810Z,93379.69
2022-11-21T01:33:46.180Z,93377.13
2022-11-21T01:36:18.480Z,93382.28
2022-11-21T01:38:47.863Z,93382.53
2022-11-21T01:41:17.523Z,93373.00
2022-11-21T01:43:44.361Z,93375.28
2022-11-21T01:46:14.875Z,93379.69
2022-11-21T01:48:53.679Z,93377.59
2022-11-21T01:51:20.118Z,93364.97
2022-11-21T01:54:11.961Z,93363.44
2022-11-21T01:56:46.868Z,93359.13
2022-11-21T01:59:20.602Z,93359.59
2022-11-21T02:01:49.444Z,93358.84
2022-11-21T02:04:16.037Z,93352.91
2022-11-21T02:06:43.447Z,93344.13
2022-11-21T02:09:09.892Z,93346.72
2022-11-21T02:11:47.801Z,93341.56
2022-11-21T02:14:14.457Z,93337.44
2022-11-21T02:16:40.939Z,93345.66
2022-11-21T02:19:15.267Z,93341.28
2022-11-21T02:21:52.828Z,93348.22
2022-11-21T02:24:27.438Z,93352.66
2022-11-21T02:26:54.160Z,93336.94
2022-11-21T02:29:20.719Z,93330.53
2022-11-21T02:31:47.242Z,93341.59
2022-11-21T02:34:13.748Z,93339.03
2022-11-21T02:36:44.126Z,93344.97
2022-11-21T02:39:16.016Z,93347.91
2022-11-21T02:41:51.534Z,93355.16
2022-11-21T02:44:34.214Z,93355.75
2022-11-21T02:47:00.613Z,93337.75
2022-11-21T02:49:53.839Z,93345.22
2022-11-21T02:52:20.211Z,93332.69
2022-11-21T02:54:46.595Z,93332.16
2022-11-21T02:57:12.987Z,93318.78
2022-11-21T02:59:39.433Z,93334.00
2022-11-21T03:02:05.833Z,93329.94
2022-11-21T03:04:32.338Z,93310.94
2022-11-21T03:06:58.876Z,93305.34
2022-11-21T03:09:25.465Z,93306.63
2022-11-21T03:11:51.838Z,93326.22
2022-11-21T03:14:18.217Z,93298.97
2022-11-21T03:16:44.593Z,93313.69
2022-11-21T03:19:10.999Z,93306.78
2022-11-21T03:21:37.407Z,93302.16
2022-11-21T03:24:04.158Z,93309.63
2022-11-21T03:26:30.559Z,93312.72
2022-11-21T03:28:56.945Z,93314.03
2022-11-21T03:31:23.347Z,93323.56
2022-11-21T03:33:49.732Z,93309.94
2022-11-21T03:36:16.117Z,93302.50
2022-11-21T03:38:42.691Z,93305.31
2022-11-21T03:41:29.045Z,93304.84
2022-11-21T03:43:56.895Z,93306.91
2022-11-21T03:46:23.442Z,93301.00
2022-11-21T03:48:49.849Z,93313.06
2022-11-21T03:51:16.277Z,93305.09
2022-11-21T03:53:42.711Z,93301.75
2022-11-21T03:56:09.106Z,93300.75
2022-11-21T03:58:35.575Z,93300.75
2022-11-21T04:01:02.050Z,93302.25
2022-11-21T04:03:28.504Z,93305.88
2022-11-21T04:05:54.903Z,93307.41
2022-11-21T04:08:21.369Z,93304.59
2022-11-21T04:10:49.466Z,93298.16
2022-11-21T04:13:16.027Z,93295.81
2022-11-21T04:15:43.142Z,93292.97
2022-11-21T04:18:09.749Z,93290.13
2022-11-21T04:20:36.478Z,93292.72
2022-11-21T04:23:02.908Z,93284.22
2022-11-21T04:25:29.629Z,93291.41
2022-11-21T04:27:57.292Z,93292.41
2022-11-21T04:30:23.703Z,93289.31
2022-11-21T04:32:56.833Z,93289.53
2022-11-21T04:35:24.666Z,93286.72
2022-11-21T04:37:51.939Z,93287.19
2022-11-21T04:40:18.555Z,93269.22
2022-11-21T04:42:47.070Z,93274.28
2022-11-21T04:45:15.405Z,93265.25
2022-11-21T04:47:46.411Z,93269.09
2022-11-21T04:50:15.530Z,93263.94
2022-11-21T04:52:42.571Z,93275.25
2022-11-21T04:55:10.032Z,93268.03
2022-11-21T04:57:36.490Z,93273.44
2022-11-21T05:00:03.463Z,93269.28
2022-11-21T05:02:29.848Z,93274.66
2022-11-21T05:04:56.245Z,93267.41
2022-11-21T05:07:22.686Z,93277.19
2022-11-21T05:09:49.161Z,93268.44
2022-11-21T05:12:34.166Z,93270.19
2022-11-21T05:15:00.599Z,93268.88
2022-11-21T05:17:29.998Z,93280.97
2022-11-21T05:19:56.400Z,93274.72
2022-11-21T05:22:22.800Z,93271.09
2022-11-21T05:24:49.240Z,93268.25
2022-11-21T05:27:15.660Z,93267.72
2022-11-21T05:29:42.139Z,93275.94
2022-11-21T05:32:08.617Z,93272.84
2022-11-21T05:34:35.099Z,93266.63
2022-11-21T05:37:01.517Z,93271.22
2022-11-21T05:39:28.126Z,93269.66
2022-11-21T05:41:59.788Z,93279.44
2022-11-21T05:44:29.355Z,93278.59
2022-11-21T05:46:55.949Z,93273.16
2022-11-21T05:49:22.416Z,93266.22
2022-11-21T05:51:48.866Z,93274.16
2022-11-21T05:54:15.631Z,93290.41
2022-11-21T05:56:42.081Z,93268.00
2022-11-21T05:59:10.864Z,93270.81
2022-11-21T06:01:56.513Z,93265.19
2022-11-21T06:04:22.896Z,93287.06
2022-11-21T06:06:49.324Z,93279.09
2022-11-21T06:09:15.723Z,93275.97
2022-11-21T06:11:42.131Z,93289.34
2022-11-21T06:14:08.509Z,93291.19
2022-11-21T06:16:34.888Z,93282.91
2022-11-21T06:19:01.278Z,93275.19
2022-11-21T06:21:29.203Z,93267.44
2022-11-21T06:23:58.062Z,93280.81
2022-11-21T06:26:26.359Z,93284.44
2022-11-21T06:28:52.761Z,93279.00
2022-11-21T06:31:22.181Z,93278.25
2022-11-21T06:33:52.628Z,93280.81
2022-11-21T06:36:19.513Z,93289.03
2022-11-21T06:38:46.363Z,93286.47
2022-11-21T06:41:15.268Z,93284.66
2022-11-21T06:43:42.362Z,93284.38
2022-11-21T06:46:09.219Z,93293.66
2022-11-21T06:48:37.242Z,93293.16
2022-11-21T06:51:09.078Z,93302.41
2022-11-21T06:53:35.477Z,93299.34
2022-11-21T06:56:02.615Z,93308.63
2022-11-21T06:58:29.424Z,93325.13
2022-11-21T07:00:56.237Z,93314.34
2022-11-21T07:03:22.953Z,93317.69
2022-11-21T07:05:50.178Z,93313.84
2022-11-21T07:08:16.591Z,93314.38
2022-11-21T07:11:03.375Z,93311.81
2022-11-21T07:13:29.985Z,93318.22
2022-11-21T07:16:02.255Z,93306.91
2022-11-21T07:18:29.140Z,93312.88
2022-11-21T07:21:04.102Z,93323.44
2022-11-21T07:23:31.641Z,93313.44
2022-11-21T07:26:02.431Z,93313.91
2022-11-21T07:28:29.916Z,93325.28
2022-11-21T07:31:01.031Z,93319.34
2022-11-21T07:33:27.664Z,93322.72
2022-11-21T07:35:58.099Z,93304.38
2022-11-21T07:38:25.309Z,93316.97
2022-11-21T07:40:52.169Z,93322.66
2022-11-21T07:43:19.014Z,93316.50
2022-11-21T07:45:45.455Z,93316.97
2022-11-21T07:48:12.924Z,93311.53
2022-11-21T07:50:39.952Z,93325.69
2022-11-21T07:53:09.236Z,93305.50
2022-11-21T07:55:40.415Z,93330.19
2022-11-21T07:58:13.391Z,93302.88
2022-11-21T08:00:42.866Z,93319.78
2022-11-21T08:03:11.970Z,93319.50
2022-11-21T08:05:40.278Z,93309.41
2022-11-21T08:08:07.175Z,93321.28
2022-11-21T08:10:34.044Z,93311.94
2022-11-21T08:13:00.476Z,93318.66
2022-11-21T08:15:26.876Z,93313.44
2022-11-21T08:17:53.333Z,93318.81
2022-11-21T08:20:19.770Z,93312.06
2022-11-21T08:22:46.155Z,93327.28
2022-11-21T08:25:12.708Z,93319.97
2022-11-21T08:27:39.815Z,93324.09
2022-11-21T08:30:07.990Z,93326.59
2022-11-21T08:32:34.589Z,93330.16
2022-11-21T08:35:01.124Z,93328.56
2022-11-21T08:37:29.407Z,93328.22
2022-11-21T08:39:58.853Z,93322.72
2022-11-21T08:42:25.983Z,93318.13
2022-11-21T08:44:52.703Z,93328.66
2022-11-21T08:47:20.511Z,93333.84
2022-11-21T08:49:47.595Z,93338.16
2022-11-21T08:52:17.121Z,93325.00
2022-11-21T08:54:44.535Z,93336.03
2022-11-21T08:57:11.161Z,93336.22
2022-11-21T08:59:37.564Z,93328.91
2022-11-21T09:02:04.042Z,93325.97
2022-11-21T09:04:30.679Z,93320.16
2022-11-21T09:06:57.304Z,93326.75
2022-11-21T09:09:25.500Z,93331.34
2022-11-21T09:11:52.202Z,93318.91
2022-11-21T09:14:37.423Z,93328.66
2022-11-21T09:17:22.280Z,93325.31
2022-11-21T09:19:49.048Z,93333.91
2022-11-21T09:22:15.427Z,93319.22
2022-11-21T09:24:41.880Z,93323.84
2022-11-21T09:27:08.256Z,93321.47
2022-11-21T09:29:34.657Z,93314.28
2022-11-21T09:32:01.136Z,93323.06
2022-11-21T09:34:27.786Z,93319.72
2022-11-21T09:36:55.442Z,93327.25
2022-11-21T09:39:22.141Z,93310.75
2022-11-21T09:41:54.381Z,93304.34
2022-11-21T09:44:33.004Z,93308.66
2022-11-21T09:47:12.505Z,93310.72
2022-11-21T09:49:43.980Z,93306.84
2022-11-21T09:52:12.257Z,93305.88
2022-11-21T09:54:54.272Z,93299.72
2022-11-21T09:57:24.130Z,93304.69
2022-11-21T09:59:52.398Z,93299.47
2022-11-21T10:02:21.382Z,93290.03
2022-11-21T10:04:49.007Z,93298.31
2022-11-21T10:07:26.031Z,93308.38
2022-11-21T10:10:12.470Z,93306.00
2022-11-21T10:12:55.684Z,93297.28
2022-11-21T10:15:54.784Z,93298.53
2022-11-21T10:18:55.700Z,93290.22
2022-11-21T10:21:51.442Z,93293.00
2022-11-21T10:24:40.688Z,93277.94
2022-11-21T10:27:24.230Z,93265.47
2022-11-21T10:29:58.983Z,93263.19
2022-11-21T10:32:36.475Z,93257.50
2022-11-21T10:35:14.120Z,93253.31
2022-11-21T10:37:46.346Z,93255.13
2022-11-21T10:40:22.010Z,93255.91
2022-11-21T10:43:27.189Z,93248.41
2022-11-21T10:45:54.291Z,93231.25
2022-11-21T10:48:20.724Z,93237.88
2022-11-21T10:51:10.969Z,93230.06
2022-11-21T10:53:55.780Z,93222.50
2022-11-21T10:56:23.114Z,93219.91
2022-11-21T10:58:52.225Z,93211.97
2022-11-21T11:01:30.815Z,93197.63
2022-11-21T11:04:26.232Z,93199.72
2022-11-21T11:06:51.506Z,93193.50
2022-11-21T11:09:24.054Z,93192.78
2022-11-21T11:11:50.617Z,93211.66
2022-11-21T11:14:28.892Z,93195.22
2022-11-21T11:16:55.700Z,93190.22
2022-11-21T11:19:35.457Z,93187.41
2022-11-21T11:22:05.056Z,93182.66
2022-11-21T11:24:31.456Z,93173.72
2022-11-21T11:27:02.658Z,93176.13
2022-11-21T11:29:35.224Z,93167.13
2022-11-21T11:32:16.413Z,93172.13
2022-11-21T11:35:00.372Z,93174.41
2022-11-21T11:37:49.254Z,93172.88
2022-11-21T11:40:34.534Z,93155.22
2022-11-21T11:43:44.336Z,93157.66
2022-11-21T11:46:36.226Z,93157.84
2022-11-21T11:49:24.605Z,93142.94
2022-11-21T11:51:54.900Z,93137.72
2022-11-21T11:54:34.375Z,93140.88
2022-11-21T11:57:01.144Z,93134.59
2022-11-21T11:59:40.011Z,93133.03
2022-11-21T12:02:16.709Z,93120.22
2022-11-21T12:04:51.046Z,93130.75
2022-11-21T12:10:23.570Z,93107.75
2022-11-21T12:13:05.433Z,93110.91
2022-11-21T12:15:52.552Z,93098.19
2022-11-21T12:18:19.354Z,93096.38
2022-11-21T12:20:52.284Z,93100.00
2022-11-21T12:23:19.884Z,93086.78
2022-11-21T12:25:59.555Z,93081.09
2022-11-21T12:28:31.982Z,93080.81
2022-11-21T12:31:09.230Z,93070.00
2022-11-21T12:33:46.971Z,93060.72
2022-11-21T12:36:35.594Z,93065.50
2022-11-21T12:39:33.953Z,93050.06
2022-11-21T12:42:38.289Z,93048.88
2022-11-21T12:45:07.439Z,93045.06
2022-11-21T12:48:21.799Z,93045.22
2022-11-21T12:51:46.024Z,93033.75
2022-11-21T12:54:37.796Z,93031.91
2022-11-21T12:57:14.102Z,93033.88
2022-11-21T13:00:02.097Z,93028.81
2022-11-21T13:02:59.217Z,93029.06
2022-11-21T13:05:32.613Z,93008.91
2022-11-21T13:08:24.161Z,93009.66
2022-11-21T13:11:27.569Z,93013.91
2022-11-21T13:14:07.214Z,93007.34
2022-11-21T13:16:36.998Z,93010.41
2022-11-21T13:19:23.078Z,93004.19
2022-11-21T13:21:53.080Z,93006.88
2022-11-21T13:24:44.559Z,92994.06
2022-11-21T13:27:40.364Z,92992.34
2022-11-21T13:30:06.790Z,92974.84
2022-11-21T13:32:44.004Z,92973.59
2022-11-21T13:35:16.535Z,92948.63
2022-11-21T13:37:52.450Z,92936.38
2022-11-21T13:40:27.851Z,92941.91
2022-11-21T13:45:58.743Z,92929.00
2022-11-21T13:48:31.280Z,92931.25
2022-11-21T13:51:12.698Z,92933.88
2022-11-21T13:53:57.599Z,92918.38
2022-11-21T13:56:35.058Z,92925.66
2022-11-21T13:59:28.512Z,92917.06
2022-11-21T14:02:22.801Z,92916.53
2022-11-21T14:05:34.150Z,92911.38
2022-11-21T14:08:22.521Z,92910.72
2022-11-21T14:10:52.641Z,92907.41
2022-11-21T14:13:33.213Z,92906.75
2022-11-21T14:16:21.165Z,92904.19
2022-11-21T14:18:47.909Z,92897.31
2022-11-21T14:21:30.860Z,92890.31
2022-11-21T14:24:04.170Z,92883.03
2022-11-21T14:26:40.324Z,92886.00
2022-11-21T14:29:28.250Z,92884.56
2022-11-21T14:31:55.747Z,92887.34
2022-11-21T14:34:31.145Z,92875.09
2022-11-21T14:36:59.756Z,92874.94
2022-11-21T14:39:39.888Z,92876.53
2022-11-21T14:42:15.009Z,92872.94
2022-11-21T14:44:42.302Z,92861.38
2022-11-21T14:47:18.447Z,92870.63
2022-11-21T14:49:55.895Z,92877.13
2022-11-21T14:52:31.438Z,92865.00
2022-11-21T14:55:28.559Z,92861.53
2022-11-21T14:57:47.132Z,92851.97
2022-11-21T15:00:43.382Z,92851.69
2022-11-21T15:03:03.257Z,92848.31
2022-11-21T15:06:03.985Z,92852.56
2022-11-21T15:11:11.536Z,92829.53
2022-11-21T15:13:58.527Z,92823.72
2022-11-21T15:16:25.410Z,92821.59
2022-11-21T15:18:51.856Z,92817.00
2022-11-21T15:21:18.353Z,92809.66
2022-11-21T15:23:45.387Z,92812.38
2022-11-21T15:26:32.996Z,92805.19
2022-11-21T15:29:00.876Z,92793.13
2022-11-21T15:31:27.950Z,92799.34
2022-11-21T15:37:03.585Z,92784.66
2022-11-21T15:39:30.342Z,92773.22
2022-11-21T15:42:35.910Z,92756.16
2022-11-21T15:45:19.896Z,92770.09
2022-11-21T15:47:47.036Z,92765.97
2022-11-21T15:50:14.215Z,92765.00
2022-11-21T15:52:48.765Z,92765.16
2022-11-21T15:55:24.633Z,92757.53
2022-11-21T15:57:51.113Z,92746.69
2022-11-21T16:00:18.613Z,92743.97
2022-11-21T16:02:45.070Z,92738.63
2022-11-21T16:05:13.192Z,92725.50
2022-11-21T16:07:40.850Z,92730.53
2022-11-21T16:10:14.885Z,92728.53
2022-11-21T16:12:47.114Z,92731.34
2022-11-21T16:15:14.129Z,92719.69
2022-11-21T16:17:41.586Z,92711.75
2022-11-21T16:20:08.456Z,92715.03
2022-11-21T16:22:34.847Z,92706.81
2022-11-21T16:25:01.218Z,92707.50
2022-11-21T16:27:27.819Z,92706.09
2022-11-21T16:29:54.214Z,92701.53
2022-11-21T16:32:20.611Z,92698.47
2022-11-21T16:34:47.201Z,92691.59
2022-11-21T16:37:14.388Z,92686.25
2022-11-21T16:39:41.810Z,92681.19
2022-11-21T16:42:10.255Z,92679.03
2022-11-21T16:44:36.648Z,92680.22
2022-11-21T16:47:08.051Z,92670.78
2022-11-21T16:49:36.235Z,92650.91
2022-11-21T16:52:02.734Z,92647.88
2022-11-21T16:54:29.123Z,92646.44
2022-11-21T16:56:55.516Z,92636.34
2022-11-21T16:59:21.904Z,92632.81
2022-11-21T17:01:48.463Z,92629.31
2022-11-21T17:04:17.517Z,92628.34
2022-11-21T17:06:45.424Z,92619.38
2022-11-21T17:09:12.282Z,92617.38
2022-11-21T17:11:38.729Z,92617.31
2022-11-21T17:14:06.586Z,92613.31
2022-11-21T17:16:34.335Z,92603.41
2022-11-21T17:19:01.996Z,92605.31
2022-11-21T17:21:29.372Z,92610.56
2022-11-21T17:23:55.952Z,92598.28
2022-11-21T17:26:24.539Z,92593.13
2022-11-21T17:28:58.562Z,92600.94
2022-11-21T17:31:25.456Z,92595.78
2022-11-21T17:33:52.610Z,92586.06
2022-11-21T17:36:21.390Z,92592.75
2022-11-21T17:38:48.181Z,92581.94
2022-11-21T17:41:18.022Z,92582.06
2022-11-21T17:43:45.158Z,92576.03
2022-11-21T17:46:19.855Z,92588.94
2022-11-21T17:48:54.325Z,92592.56
2022-11-21T17:51:25.354Z,92588.75
2022-11-21T17:53:52.710Z,92584.38
2022-11-21T17:56:21.594Z,92588.75
2022-11-21T17:58:48.352Z,92588.19
2022-11-21T18:01:19.541Z,92581.69
2022-11-21T18:03:47.183Z,92573.66
2022-11-21T18:06:15.691Z,92576.63
2022-11-21T18:08:44.789Z,92569.66
2022-11-21T18:11:13.922Z,92582.25
2022-11-21T18:13:41.013Z,92569.56
2022-11-21T18:16:10.684Z,92577.31
2022-11-21T18:18:37.735Z,92576.53
2022-11-21T18:21:12.444Z,92570.63
2022-11-21T18:23:39.108Z,92572.16
2022-11-21T18:26:21.184Z,92561.34
2022-11-21T18:29:07.203Z,92552.13
2022-11-21T18:31:39.247Z,92551.16
2022-11-21T18:34:06.712Z,92545.63
2022-11-21T18:36:33.578Z,92542.97
2022-11-21T18:39:07.159Z,92535.50
2022-11-21T18:41:38.764Z,92543.34
2022-11-21T18:44:06.507Z,92538.94
2022-11-21T18:46:35.759Z,92541.72
2022-11-21T18:49:05.891Z,92530.09
2022-11-21T18:51:33.900Z,92525.41
2022-11-21T18:54:07.185Z,92507.00
2022-11-21T18:56:34.337Z,92502.91
2022-11-21T18:59:00.994Z,92496.22
2022-11-21T19:01:29.358Z,92494.81
2022-11-21T19:03:56.316Z,92495.19
2022-11-21T19:06:24.807Z,92500.25
2022-11-21T19:08:55.965Z,92499.78
2022-11-21T19:11:24.802Z,92497.22
2022-11-21T19:13:52.486Z,92497.22
2022-11-21T19:16:21.624Z,92492.06
2022-11-21T19:19:11.494Z,92492.53
2022-11-21T19:21:38.815Z,92490.84
2022-11-21T19:24:09.305Z,92489.31
2022-11-21T19:26:35.765Z,92480.81
2022-11-21T19:29:02.217Z,92485.38
2022-11-21T19:31:28.702Z,92478.72
2022-11-21T19:33:55.178Z,92472.81
2022-11-21T19:36:23.649Z,92469.94
2022-11-21T19:38:51.711Z,92464.78
2022-11-21T19:41:28.001Z,92461.75
2022-11-21T19:43:57.390Z,92469.78
2022-11-21T19:46:26.588Z,92464.91
2022-11-21T19:48:55.796Z,92461.88
2022-11-21T19:51:24.914Z,92449.00
2022-11-21T19:53:51.352Z,92457.19
2022-11-21T19:56:20.475Z,92465.38
2022-11-21T19:58:47.785Z,92462.53
2022-11-21T20:01:16.738Z,92450.88
2022-11-21T20:03:45.216Z,92443.63
2022-11-21T20:06:23.011Z,92436.38
2022-11-21T20:08:51.940Z,92439.44
2022-11-21T20:11:18.393Z,92423.03
2022-11-21T20:13:45.558Z,92429.03
2022-11-21T20:16:26.658Z,92427.94
2022-11-21T20:18:55.913Z,92419.66
2022-11-21T20:21:22.425Z,92424.53
2022-11-21T20:23:48.923Z,92431.38
2022-11-21T20:26:17.843Z,92426.69
2022-11-21T20:28:44.359Z,92426.69
2022-11-21T20:31:13.691Z,92424.28
2022-11-21T20:33:42.809Z,92433.25
2022-11-21T20:36:14.279Z,92429.63
2022-11-21T20:38:41.703Z,92438.41
2022-11-21T20:41:08.318Z,92436.41
2022-11-21T20:44:03.174Z,92442.03
2022-11-21T20:46:21.777Z,92431.16
2022-11-21T20:48:48.419Z,92435.25
2022-11-21T20:54:03.907Z,92436.09
2022-11-21T20:56:35.126Z,92440.06
2022-11-21T20:59:02.253Z,92431.75
2022-11-21T21:01:29.178Z,92426.00
2022-11-21T21:03:55.729Z,92432.41
2022-11-21T21:06:24.139Z,92423.59
2022-11-21T21:08:51.629Z,92422.25
2022-11-21T21:11:50.459Z,92423.03
2022-11-21T21:14:09.680Z,92425.59
2022-11-21T21:16:36.228Z,92428.00
2022-11-21T21:19:02.826Z,92421.34
2022-11-21T21:21:30.647Z,92428.28
2022-11-21T21:24:02.080Z,92433.00
2022-11-21T21:26:30.156Z,92427.53
2022-11-21T21:28:58.030Z,92424.03
2022-11-21T21:31:24.533Z,92424.97
2022-11-21T21:33:50.984Z,92428.75
2022-11-21T21:36:22.021Z,92425.28
2022-11-21T21:38:58.764Z,92434.75
2022-11-21T21:41:27.318Z,92419.47
2022-11-21T21:43:55.062Z,92422.78
2022-11-21T21:46:23.608Z,92420.69
2022-11-21T21:48:53.066Z,92422.78
2022-11-21T21:51:22.146Z,92422.03
2022-11-21T21:53:49.780Z,92416.53
2022-11-21T21:56:17.638Z,92413.81
2022-11-21T21:58:46.148Z,92415.94
2022-11-21T22:01:17.024Z,92411.25
2022-11-21T22:03:45.008Z,92408.19
2022-11-21T22:06:16.724Z,92410.59
2022-11-21T22:08:44.270Z,92405.44
2022-11-21T22:11:13.708Z,92404.84
2022-11-21T22:13:41.877Z,92388.63
2022-11-21T22:16:11.070Z,92398.66
2022-11-21T22:18:38.248Z,92394.09
2022-11-21T22:21:21.479Z,92401.06
2022-11-21T22:26:34.579Z,92414.06
2022-11-21T22:29:01.010Z,92411.66
2022-11-21T22:31:30.196Z,92408.31
2022-11-21T22:33:57.226Z,92408.44
2022-11-21T22:36:23.614Z,92414.06
2022-11-21T22:38:53.740Z,92408.44
2022-11-21T22:41:22.516Z,92401.75
2022-11-21T22:43:53.752Z,92397.19
2022-11-21T22:46:20.621Z,92400.53
2022-11-21T22:48:48.042Z,92415.69
2022-11-21T22:51:17.094Z,92403.56
2022-11-21T22:53:45.937Z,92394.03
2022-11-21T22:56:12.895Z,92403.19
2022-11-21T22:58:40.519Z,92402.09
2022-11-21T23:01:14.825Z,92416.97
2022-11-21T23:03:42.629Z,92402.88
2022-11-21T23:06:14.221Z,92410.47
2022-11-21T23:08:41.497Z,92404.59
2022-11-21T23:11:13.079Z,92399.88
2022-11-21T23:13:41.336Z,92399.56
2022-11-21T23:16:08.422Z,92391.25
2022-11-21T23:18:35.403Z,92395.66
2022-11-21T23:21:02.159Z,92382.94
2022-11-21T23:23:28.630Z,92392.97
2022-11-21T23:25:55.103Z,92387.06
2022-11-21T23:28:22.179Z,92394.78
2022-11-21T23:30:49.423Z,92368.59
2022-11-21T23:33:16.345Z,92398.13
2022-11-21T23:35:43.633Z,92397.53
2022-11-21T23:38:10.945Z,92383.88
2022-11-21T23:40:37.388Z,92382.06
2022-11-21T23:43:04.171Z,92376.63
2022-11-21T23:45:30.718Z,92374.94
2022-11-21T23:47:57.148Z,92373.63
2022-11-21T23:50:23.584Z,92365.75
2022-11-21T23:52:50.031Z,92365.91
2022-11-21T23:55:17.075Z,92371.22
2022-11-21T23:57:48.226Z,92371.81
